Time;durP1;ratioP1;P1;durP2;ratioP2;P2;SDS_P1;SDS_P2;PMS_P1;PMS_P2;Temp;Humidity;BMP_temperature;BMP_pressure;BME280_temperature;BME280_humidity;BME280_pressure;Samples;Min_cycle;Max_cycle;Signal;HPM_P1;HPM_P2
2021/09/22 00:01:54;;;;;;;38.80;19.80;;;8.60;99.90;;;;;;4408307;28;658362;-69
2021/09/22 00:04:42;;;;;;;39.23;21.87;;;8.60;99.90;;;;;;4431349;28;658033;-69
2021/09/22 00:07:30;;;;;;;31.60;18.17;;;8.60;99.90;;;;;;4402508;28;657511;-68
2021/09/22 00:10:19;;;;;;;37.17;19.67;;;8.60;99.90;;;;;;4405521;28;657457;-69
2021/09/22 00:13:08;;;;;;;33.47;19.73;;;8.60;99.90;;;;;;4432300;28;657319;-69
2021/09/22 00:15:57;;;;;;;33.47;19.00;;;8.60;99.90;;;;;;4400639;28;657697;-68
2021/09/22 00:18:46;;;;;;;28.70;17.57;;;8.60;99.90;;;;;;4403596;28;658866;-69
2021/09/22 00:21:35;;;;;;;33.10;19.33;;;8.60;99.90;;;;;;4411198;28;657530;-69
2021/09/22 00:24:27;;;;;;;27.63;17.20;;;8.60;99.90;;;;;;4426869;28;658214;-69
2021/09/22 00:27:16;;;;;;;30.87;18.10;;;8.60;99.90;;;;;;4399164;28;659514;-69
2021/09/22 00:30:07;;;;;;;32.87;18.07;;;8.60;99.90;;;;;;4399187;28;657414;-68
2021/09/22 00:32:56;;;;;;;26.30;15.63;;;8.60;99.90;;;;;;4392403;28;658355;-69
2021/09/22 00:35:45;;;;;;;28.83;17.33;;;8.60;99.90;;;;;;4403252;28;657815;-68
2021/09/22 00:38:34;;;;;;;27.07;16.27;;;8.60;99.90;;;;;;4420707;28;657971;-68
2021/09/22 00:41:24;;;;;;;26.00;15.07;;;8.60;99.90;;;;;;4427405;28;657443;-69
2021/09/22 00:44:12;;;;;;;25.80;15.47;;;8.60;99.90;;;;;;4409844;28;657697;-69
2021/09/22 00:46:59;;;;;;;23.93;14.43;;;8.60;99.90;;;;;;4396737;28;658130;-68
2021/09/22 00:49:47;;;;;;;23.90;14.63;;;8.50;99.90;;;;;;4414289;28;658458;-68
2021/09/22 00:52:34;;;;;;;23.57;14.23;;;8.60;99.90;;;;;;4405103;28;658328;-69
2021/09/22 00:55:22;;;;;;;20.37;13.50;;;8.60;99.90;;;;;;4423810;28;658024;-69
2021/09/22 00:58:11;;;;;;;19.53;13.20;;;8.60;99.90;;;;;;4396684;28;658220;-69
2021/09/22 01:00:58;;;;;;;21.37;12.33;;;8.60;99.90;;;;;;4404128;28;658377;-68
2021/09/22 01:03:46;;;;;;;14.63;8.90;;;8.60;99.90;;;;;;4418739;28;658628;-68
2021/09/22 01:06:33;;;;;;;13.23;8.30;;;8.60;99.90;;;;;;4409927;28;656545;-68
2021/09/22 01:09:21;;;;;;;11.07;7.20;;;8.60;99.90;;;;;;4424625;28;656454;-68
2021/09/22 01:12:09;;;;;;;10.90;7.33;;;8.60;99.90;;;;;;4396533;28;656159;-68
2021/09/22 01:14:57;;;;;;;11.30;7.27;;;8.60;99.90;;;;;;4428922;28;657064;-68
2021/09/22 01:17:45;;;;;;;10.43;6.80;;;8.60;99.90;;;;;;4404228;28;657053;-69
2021/09/22 01:20:33;;;;;;;12.57;7.53;;;8.60;99.90;;;;;;4416931;28;656623;-68
2021/09/22 01:23:22;;;;;;;13.23;8.10;;;8.60;99.90;;;;;;4422968;28;656809;-69
2021/09/22 01:26:09;;;;;;;14.03;8.70;;;8.60;99.90;;;;;;4409322;28;657550;-69
2021/09/22 01:28:57;;;;;;;13.87;8.17;;;8.60;99.90;;;;;;4431616;28;656165;-69
2021/09/22 01:31:45;;;;;;;14.70;9.33;;;8.60;99.90;;;;;;4408607;28;658507;-68
2021/09/22 01:34:33;;;;;;;18.17;10.63;;;8.50;99.90;;;;;;4431241;28;656805;-69
2021/09/22 01:37:20;;;;;;;16.07;10.43;;;8.50;99.90;;;;;;4421519;28;658958;-69
2021/09/22 01:40:10;;;;;;;17.37;10.17;;;8.50;99.90;;;;;;4413753;28;657511;-68
2021/09/22 01:42:58;;;;;;;18.75;9.75;;;8.60;99.90;;;;;;4412123;28;658833;-69
2021/09/22 01:45:45;;;;;;;12.43;7.63;;;8.60;99.90;;;;;;4418303;28;657755;-68
2021/09/22 01:48:33;;;;;;;13.57;7.80;;;8.50;99.90;;;;;;4403146;28;656394;-68
2021/09/22 01:51:21;;;;;;;15.23;8.33;;;8.50;99.90;;;;;;4424713;28;657376;-68
2021/09/22 01:54:08;;;;;;;11.53;7.50;;;8.50;99.90;;;;;;4410785;28;656530;-68
2021/09/22 01:56:57;;;;;;;12.47;6.20;;;8.40;99.90;;;;;;4429370;28;657152;-69
2021/09/22 01:59:44;;;;;;;9.97;6.20;;;8.40;99.90;;;;;;4399068;28;657561;-69
2021/09/22 02:02:32;;;;;;;10.93;6.60;;;8.30;99.90;;;;;;4426687;28;655905;-69
2021/09/22 02:05:19;;;;;;;10.03;6.20;;;8.30;99.90;;;;;;4408223;28;657042;-69
2021/09/22 02:08:07;;;;;;;12.30;6.80;;;8.30;99.90;;;;;;4429345;28;656622;-69
2021/09/22 02:10:54;;;;;;;13.77;7.23;;;8.30;99.90;;;;;;4405039;28;657770;-69
2021/09/22 02:13:43;;;;;;;14.03;8.53;;;8.20;99.90;;;;;;4428737;28;656744;-69
2021/09/22 02:16:31;;;;;;;14.90;8.90;;;8.20;99.90;;;;;;4402101;28;657223;-69
2021/09/22 02:19:18;;;;;;;17.40;10.00;;;8.10;99.90;;;;;;4405498;28;656621;-69
2021/09/22 02:22:06;;;;;;;19.33;10.40;;;8.10;99.90;;;;;;4429258;28;658535;-69
2021/09/22 02:24:55;;;;;;;18.93;9.90;;;8.10;99.90;;;;;;4409022;28;658612;-69
2021/09/22 02:27:43;;;;;;;15.97;8.80;;;8.10;99.90;;;;;;4425915;28;656559;-69
2021/09/22 02:30:32;;;;;;;14.97;7.87;;;8.10;99.90;;;;;;4418396;28;657828;-69
2021/09/22 02:33:19;;;;;;;12.33;6.97;;;8.00;99.90;;;;;;4403691;28;657075;-69
2021/09/22 02:36:07;;;;;;;9.18;5.68;;;8.00;99.90;;;;;;4426786;28;656947;-69
2021/09/22 02:38:54;;;;;;;10.77;5.17;;;8.00;99.90;;;;;;4405808;28;656679;-69
2021/09/22 02:41:42;;;;;;;13.90;6.50;;;7.90;99.90;;;;;;4430338;28;656773;-69
2021/09/22 02:44:29;;;;;;;13.03;5.77;;;7.90;99.90;;;;;;4401972;28;657945;-68
2021/09/22 02:47:19;;;;;;;14.20;6.30;;;7.90;99.90;;;;;;4423770;28;656935;-68
2021/09/22 02:50:08;;;;;;;11.37;6.43;;;7.90;99.90;;;;;;4393764;28;656833;-69
2021/09/22 02:52:55;;;;;;;12.17;6.67;;;7.90;99.90;;;;;;4403267;28;657572;-69
2021/09/22 02:55:43;;;;;;;15.50;7.47;;;7.90;99.90;;;;;;4411609;28;656623;-69
2021/09/22 02:58:30;;;;;;;15.20;8.33;;;7.80;99.90;;;;;;4431640;28;657859;-69
2021/09/22 03:01:18;;;;;;;15.30;8.00;;;7.80;99.90;;;;;;4401702;28;658218;-69
2021/09/22 03:04:07;;;;;;;16.17;9.07;;;7.70;99.90;;;;;;4431923;28;657692;-69
2021/09/22 03:06:54;;;;;;;15.40;8.40;;;7.70;99.90;;;;;;4399604;28;658377;-69
2021/09/22 03:09:42;;;;;;;14.90;8.33;;;7.70;99.90;;;;;;4413750;28;656589;-69
2021/09/22 03:12:30;;;;;;;15.40;7.40;;;7.70;99.90;;;;;;4401402;28;657435;-69
2021/09/22 03:15:17;;;;;;;16.00;7.80;;;7.70;99.90;;;;;;4416760;28;656332;-68
2021/09/22 03:18:05;;;;;;;14.43;6.93;;;7.70;99.90;;;;;;4405630;28;657779;-68
2021/09/22 03:20:54;;;;;;;12.68;6.82;;;7.70;99.90;;;;;;4404763;28;656310;-69
2021/09/22 03:23:42;;;;;;;12.57;6.60;;;7.70;99.90;;;;;;4426656;28;656552;-69
2021/09/22 03:26:29;;;;;;;10.00;5.70;;;7.70;99.90;;;;;;4407420;28;657635;-69
2021/09/22 03:29:17;;;;;;;11.27;6.00;;;7.60;99.90;;;;;;4420074;28;656858;-69
2021/09/22 03:32:05;;;;;;;11.13;6.10;;;7.60;99.90;;;;;;4407119;28;657004;-69
2021/09/22 03:34:53;;;;;;;13.20;6.43;;;7.60;99.90;;;;;;4424692;28;656798;-69
2021/09/22 03:37:42;;;;;;;12.53;5.97;;;7.60;99.90;;;;;;4423982;28;657838;-69
2021/09/22 03:40:29;;;;;;;11.67;5.80;;;7.60;99.90;;;;;;4404123;28;656422;-69
2021/09/22 03:43:17;;;;;;;14.13;6.27;;;7.60;99.90;;;;;;4422457;28;656810;-69
2021/09/22 03:46:05;;;;;;;13.17;6.63;;;7.60;99.90;;;;;;4409998;28;656744;-69
2021/09/22 03:48:53;;;;;;;12.70;6.33;;;7.60;99.90;;;;;;4419769;28;656665;-69
2021/09/22 03:51:40;;;;;;;12.70;6.97;;;7.60;99.90;;;;;;4426986;28;658134;-69
2021/09/22 03:54:29;;;;;;;11.53;6.40;;;7.60;99.90;;;;;;4387828;28;656492;-69
2021/09/22 03:57:18;;;;;;;11.17;6.20;;;7.70;99.90;;;;;;4423161;28;657067;-69
2021/09/22 04:00:11;;;;;;;15.00;6.73;;;7.70;99.90;;;;;;4406845;28;656944;-69
2021/09/22 04:02:58;;;;;;;14.67;5.70;;;7.70;99.90;;;;;;4385458;28;657055;-69
2021/09/22 04:05:46;;;;;;;10.73;6.27;;;7.70;99.90;;;;;;4429065;28;657173;-69
2021/09/22 04:08:33;;;;;;;9.77;5.93;;;7.70;99.90;;;;;;4404444;28;656762;-69
2021/09/22 04:11:22;;;;;;;13.27;6.43;;;7.70;99.90;;;;;;4426962;28;655906;-69
2021/09/22 04:14:10;;;;;;;13.20;6.47;;;7.70;99.90;;;;;;4406900;28;657693;-69
2021/09/22 04:16:58;;;;;;;13.30;6.40;;;7.70;99.90;;;;;;4426152;28;656529;-69
2021/09/22 04:19:45;;;;;;;11.07;5.90;;;7.70;99.90;;;;;;4421293;28;657815;-68
2021/09/22 04:22:33;;;;;;;10.80;6.27;;;7.70;99.90;;;;;;4408183;28;656303;-68
2021/09/22 04:25:21;;;;;;;16.67;6.90;;;7.70;99.90;;;;;;4430054;28;656550;-68
2021/09/22 04:28:09;;;;;;;13.47;6.83;;;7.70;99.90;;;;;;4409312;28;657032;-68
2021/09/22 04:30:57;;;;;;;12.60;6.87;;;7.70;99.90;;;;;;4424613;28;656504;-68
2021/09/22 04:33:54;;;;;;;16.27;7.17;;;7.70;99.90;;;;;;4403434;28;658029;-68
2021/09/22 04:36:42;;;;;;;18.30;7.77;;;7.80;99.90;;;;;;4395236;28;656470;-68
2021/09/22 04:39:29;;;;;;;13.70;7.47;;;7.80;99.90;;;;;;4409460;28;656581;-68
2021/09/22 04:42:16;;;;;;;16.53;8.43;;;7.80;99.90;;;;;;4428913;28;656727;-69
2021/09/22 04:45:06;;;;;;;17.07;8.23;;;7.90;99.90;;;;;;4407297;28;656318;-68
2021/09/22 04:47:54;;;;;;;16.52;8.07;;;7.90;99.90;;;;;;4411617;28;656529;-68
2021/09/22 04:51:19;;;;;;;16.53;7.53;;;7.80;99.90;;;;;;4423054;28;656709;-68
2021/09/22 04:54:10;;;;;;;13.83;7.40;;;7.80;99.90;;;;;;4411071;28;656858;-68
2021/09/22 04:56:58;;;;;;;14.33;7.23;;;7.90;99.90;;;;;;4432505;28;656804;-68
2021/09/22 04:59:45;;;;;;;12.50;6.63;;;7.90;99.90;;;;;;4433431;28;657641;-68
2021/09/22 05:02:34;;;;;;;14.43;7.13;;;7.90;99.90;;;;;;4416333;28;657025;-68
2021/09/22 05:05:22;;;;;;;14.10;6.57;;;7.90;99.90;;;;;;4434319;28;657369;-68
2021/09/22 05:08:09;;;;;;;10.77;5.87;;;7.90;99.90;;;;;;4415815;28;656805;-68
2021/09/22 05:10:57;;;;;;;12.70;6.50;;;7.90;99.90;;;;;;4433355;28;656291;-68
2021/09/22 05:13:44;;;;;;;14.47;6.47;;;7.90;99.90;;;;;;4410537;28;657588;-68
2021/09/22 05:16:39;;;;;;;11.03;5.97;;;8.00;99.90;;;;;;4433816;28;656774;-68
2021/09/22 05:19:28;;;;;;;9.67;5.57;;;8.00;99.90;;;;;;4406886;28;656867;-67
2021/09/22 05:22:16;;;;;;;9.83;5.60;;;7.90;99.90;;;;;;4404333;28;656998;-67
2021/09/22 05:25:04;;;;;;;8.67;5.30;;;7.90;99.90;;;;;;4402356;28;655338;-67
2021/09/22 05:27:52;;;;;;;10.53;5.30;;;7.90;99.90;;;;;;4430530;28;655376;-67
2021/09/22 05:30:39;;;;;;;9.93;5.27;;;7.90;99.90;;;;;;4404241;28;656722;-68
2021/09/22 05:33:27;;;;;;;10.48;5.65;;;8.00;99.90;;;;;;4430941;28;655793;-67
2021/09/22 05:36:16;;;;;;;9.03;5.50;;;8.00;99.90;;;;;;4399275;28;657866;-67
2021/09/22 05:39:03;;;;;;;7.83;5.00;;;8.00;99.90;;;;;;4405870;28;655838;-67
2021/09/22 05:41:51;;;;;;;11.37;5.83;;;8.00;99.90;;;;;;4423779;28;656857;-67
2021/09/22 05:44:38;;;;;;;9.37;5.10;;;8.10;99.90;;;;;;4404546;28;656553;-67
2021/09/22 05:47:27;;;;;;;10.10;5.60;;;8.10;99.90;;;;;;4427308;28;655878;-67
2021/09/22 05:50:15;;;;;;;8.70;5.13;;;8.20;99.90;;;;;;4398958;28;657876;-67
2021/09/22 05:53:04;;;;;;;9.87;5.40;;;8.20;99.90;;;;;;4418972;28;655517;-68
2021/09/22 05:55:52;;;;;;;8.30;5.32;;;8.30;99.90;;;;;;4423525;28;656331;-67
2021/09/22 05:58:39;;;;;;;10.53;5.83;;;8.30;99.90;;;;;;4402444;28;656637;-67
2021/09/22 06:01:27;;;;;;;9.53;5.53;;;8.40;99.90;;;;;;4426205;28;657063;-68
2021/09/22 06:04:15;;;;;;;10.43;5.50;;;8.40;99.90;;;;;;4397342;28;657086;-67
2021/09/22 06:07:03;;;;;;;9.80;5.07;;;8.40;99.90;;;;;;4414826;28;656300;-68
2021/09/22 06:09:52;;;;;;;10.27;5.07;;;8.40;99.90;;;;;;4431416;28;656228;-67
2021/09/22 06:12:40;;;;;;;9.10;5.57;;;8.40;99.90;;;;;;4407644;28;657673;-67
2021/09/22 06:15:28;;;;;;;9.37;5.70;;;8.50;99.90;;;;;;4424980;28;655240;-68
2021/09/22 06:18:15;;;;;;;10.13;5.63;;;8.60;99.90;;;;;;4428876;28;657275;-67
2021/09/22 06:21:04;;;;;;;10.02;5.40;;;8.60;99.90;;;;;;4406791;28;657155;-68
2021/09/22 06:23:53;;;;;;;8.97;5.37;;;8.60;99.90;;;;;;4424462;28;656455;-67
2021/09/22 06:26:42;;;;;;;12.20;5.63;;;8.70;99.90;;;;;;4412859;28;656606;-67
2021/09/22 06:29:30;;;;;;;8.20;5.27;;;8.70;99.90;;;;;;4406506;28;657877;-67
2021/09/22 06:32:18;;;;;;;9.77;5.73;;;8.70;99.90;;;;;;4404247;28;655612;-68
2021/09/22 06:35:06;;;;;;;7.87;5.20;;;8.60;99.90;;;;;;4419500;28;657019;-67
2021/09/22 06:37:54;;;;;;;9.98;5.85;;;8.70;99.90;;;;;;4405828;28;655421;-67
2021/09/22 06:40:41;;;;;;;11.17;6.30;;;8.60;99.90;;;;;;4424476;28;655748;-67
2021/09/22 06:43:30;;;;;;;13.97;5.73;;;8.70;99.90;;;;;;4408672;28;656739;-67
2021/09/22 06:46:18;;;;;;;10.37;6.23;;;8.80;99.90;;;;;;4401692;28;656938;-67
2021/09/22 06:49:06;;;;;;;11.07;6.97;;;8.90;99.90;;;;;;4428956;28;657080;-67
2021/09/22 06:51:53;;;;;;;11.43;6.70;;;8.90;99.90;;;;;;4401868;28;656576;-67
2021/09/22 06:54:41;;;;;;;11.83;6.50;;;9.00;99.90;;;;;;4418625;28;657665;-67
2021/09/22 06:57:28;;;;;;;10.90;7.10;;;9.00;99.90;;;;;;4406109;28;657043;-67
2021/09/22 07:00:18;;;;;;;16.60;7.93;;;9.00;99.90;;;;;;4427882;28;657013;-67
2021/09/22 07:03:11;;;;;;;13.00;7.50;;;9.10;99.90;;;;;;4400867;28;656787;-67
2021/09/22 07:05:59;;;;;;;16.70;8.10;;;9.20;99.90;;;;;;4399159;28;657020;-68
2021/09/22 07:08:46;;;;;;;15.37;8.13;;;9.20;99.90;;;;;;4419757;28;657708;-66
2021/09/22 07:11:34;;;;;;;16.80;8.70;;;9.30;99.90;;;;;;4411533;28;656809;-67
2021/09/22 07:14:21;;;;;;;18.40;8.60;;;9.40;99.90;;;;;;4425549;28;656879;-67
2021/09/22 07:17:11;;;;;;;16.37;8.47;;;9.40;99.90;;;;;;4406786;28;656345;-67
2021/09/22 07:19:58;;;;;;;17.20;8.97;;;9.50;99.90;;;;;;4407365;28;656614;-67
2021/09/22 07:22:46;;;;;;;19.92;9.30;;;9.60;99.90;;;;;;4427082;28;657622;-67
2021/09/22 07:25:33;;;;;;;21.17;9.27;;;9.60;99.90;;;;;;4409544;28;656937;-68
2021/09/22 07:28:21;;;;;;;17.27;8.47;;;9.70;99.90;;;;;;4421624;28;657311;-67
2021/09/22 07:31:09;;;;;;;16.40;7.93;;;9.80;99.90;;;;;;4403280;28;656463;-67
2021/09/22 07:33:58;;;;;;;16.73;8.00;;;9.70;99.90;;;;;;4429579;28;656737;-66
2021/09/22 07:36:46;;;;;;;16.90;7.10;;;9.80;99.90;;;;;;4405500;28;658331;-67
2021/09/22 07:39:33;;;;;;;15.10;7.43;;;9.80;99.90;;;;;;4403610;28;656601;-67
2021/09/22 07:42:21;;;;;;;12.07;5.88;;;9.80;99.90;;;;;;4424996;28;657154;-67
2021/09/22 07:45:09;;;;;;;10.53;5.90;;;9.80;99.90;;;;;;4390766;28;656594;-67
2021/09/22 07:47:57;;;;;;;12.40;5.90;;;9.80;99.90;;;;;;4422673;28;656326;-67
2021/09/22 07:50:46;;;;;;;11.93;6.30;;;9.90;99.90;;;;;;4409731;28;656896;-67
2021/09/22 07:53:33;;;;;;;14.63;6.50;;;9.90;99.90;;;;;;4402873;28;656834;-67
2021/09/22 07:56:21;;;;;;;9.57;5.30;;;9.90;99.90;;;;;;4424441;28;657623;-66
2021/09/22 07:59:08;;;;;;;10.70;6.20;;;9.90;99.90;;;;;;4407424;28;655422;-67
2021/09/22 08:01:56;;;;;;;10.90;5.97;;;9.80;99.90;;;;;;4429741;28;657785;-67
2021/09/22 08:04:44;;;;;;;12.80;6.77;;;9.70;99.90;;;;;;4408595;28;656828;-67
2021/09/22 08:07:33;;;;;;;7.03;4.70;;;9.70;99.90;;;;;;4429258;28;657713;-68
2021/09/22 08:10:20;;;;;;;9.65;5.65;;;9.60;99.90;;;;;;4397815;28;658042;-67
2021/09/22 08:13:08;;;;;;;7.67;4.23;;;9.40;99.90;;;;;;4404416;28;655858;-67
2021/09/22 08:15:55;;;;;;;11.60;5.87;;;9.50;99.90;;;;;;4431350;28;655431;-67
2021/09/22 08:18:46;;;;;;;12.93;6.80;;;9.50;99.90;;;;;;4403473;28;656574;-68
2021/09/22 08:21:33;;;;;;;11.53;6.20;;;9.70;99.90;;;;;;4406626;28;656791;-67
2021/09/22 08:24:23;;;;;;;11.63;6.30;;;9.80;99.90;;;;;;4429055;28;657217;-67
2021/09/22 08:27:12;;;;;;;8.90;4.87;;;10.00;99.90;;;;;;4399211;28;657292;-67
2021/09/22 08:29:59;;;;;;;6.37;4.07;;;10.30;99.90;;;;;;4400819;28;657211;-67
2021/09/22 08:32:47;;;;;;;58.03;13.95;;;10.30;99.90;;;;;;4425551;28;656759;-67
2021/09/22 08:35:35;;;;;;;8.00;4.00;;;10.50;99.90;;;;;;4407299;28;659044;-67
2021/09/22 08:38:22;;;;;;;4.20;3.30;;;10.70;99.90;;;;;;4432482;28;656052;-66
2021/09/22 08:41:11;;;;;;;5.07;3.10;;;10.80;99.90;;;;;;4403205;28;657007;-67
2021/09/22 08:44:03;;;;;;;11.70;5.43;;;10.90;99.90;;;;;;4407770;28;657562;-67
2021/09/22 08:46:51;;;;;;;8.63;4.33;;;11.10;99.90;;;;;;4400908;28;658459;-66
2021/09/22 08:49:40;;;;;;;10.37;5.40;;;11.30;99.90;;;;;;4410359;28;656476;-67
2021/09/22 08:52:28;;;;;;;17.20;8.90;;;11.50;99.90;;;;;;4419638;28;657969;-67
2021/09/22 08:55:16;;;;;;;7.43;4.73;;;11.70;99.90;;;;;;4423165;28;658545;-66
2021/09/22 08:58:05;;;;;;;6.40;4.47;;;11.80;96.90;;;;;;4405589;28;656479;-67
2021/09/22 09:00:53;;;;;;;12.30;6.63;;;11.90;98.00;;;;;;4419228;28;656523;-67
2021/09/22 09:03:42;;;;;;;10.80;5.77;;;12.00;97.10;;;;;;4422259;28;659321;-67
2021/09/22 09:06:33;;;;;;;13.23;7.07;;;12.10;91.80;;;;;;4405716;28;658224;-67
2021/09/22 09:09:21;;;;;;;6.33;3.67;;;12.30;86.10;;;;;;4399470;28;658669;-67
2021/09/22 09:12:19;;;;;;;6.03;4.10;;;12.50;67.50;;;;;;4402265;28;656868;-67
2021/09/22 09:15:11;;;;;;;12.67;4.37;;;13.10;66.90;;;;;;4406012;28;656197;-67
2021/09/22 09:18:00;;;;;;;7.77;3.80;;;13.80;37.50;;;;;;4379727;28;658399;-67
2021/09/22 09:20:48;;;;;;;8.93;3.53;;;13.80;1.00;;;;;;4411662;28;658027;-67
2021/09/22 09:23:36;;;;;;;5.05;3.13;;;13.70;1.00;;;;;;4426774;28;656038;-67
2021/09/22 09:26:25;;;;;;;5.70;3.53;;;13.50;1.00;;;;;;4405854;28;655322;-67
2021/09/22 09:29:13;;;;;;;5.10;3.60;;;13.30;1.00;;;;;;4419147;28;655557;-68
2021/09/22 09:32:16;;;;;;;5.83;3.27;;;13.00;99.90;;;;;;4419972;28;656515;-67
2021/09/22 09:35:06;;;;;;;6.73;3.47;;;13.10;99.90;;;;;;4404516;28;656573;-67
2021/09/22 09:37:54;;;;;;;4.43;3.30;;;13.40;99.90;;;;;;4403468;28;656245;-68
2021/09/22 09:40:42;;;;;;;5.97;3.23;;;13.50;99.90;;;;;;4424377;28;657370;-67
2021/09/22 09:43:29;;;;;;;6.03;3.10;;;13.80;99.90;;;;;;4402380;28;657873;-67
2021/09/22 09:46:20;;;;;;;3.50;2.77;;;13.80;99.90;;;;;;4428156;28;657024;-67
2021/09/22 09:49:10;;;;;;;5.27;3.33;;;13.70;1.00;;;;;;4377415;28;656511;-68
2021/09/22 09:51:59;;;;;;;6.07;3.30;;;13.40;1.00;;;;;;4404153;28;655985;-68
2021/09/22 09:54:49;;;;;;;3.90;2.97;;;13.20;1.00;;;;;;4430572;28;656166;-67
2021/09/22 09:57:37;;;;;;;6.27;3.43;;;12.90;99.90;;;;;;4405396;28;656088;-68
2021/09/22 10:00:26;;;;;;;7.83;3.57;;;12.80;99.90;;;;;;4408919;28;657396;-67
2021/09/22 10:03:15;;;;;;;5.43;3.23;;;12.80;99.90;;;;;;4405944;28;656317;-67
2021/09/22 10:06:04;;;;;;;5.67;3.37;;;12.70;99.90;;;;;;4412535;28;656907;-67
2021/09/22 10:08:52;;;;;;;4.97;3.33;;;12.50;99.90;;;;;;4424110;28;656986;-66
2021/09/22 10:11:40;;;;;;;7.80;4.47;;;12.30;99.90;;;;;;4405393;28;657670;-66
2021/09/22 10:14:31;;;;;;;6.87;3.83;;;12.30;99.90;;;;;;4404091;28;656433;-68
2021/09/22 10:17:18;;;;;;;7.17;3.40;;;12.30;1.00;;;;;;4409236;28;656495;-67
2021/09/22 10:20:07;;;;;;;7.20;4.47;;;12.20;1.00;;;;;;4423469;28;656012;-66
2021/09/22 10:22:56;;;;;;;12.47;5.63;;;12.20;1.00;;;;;;4407247;28;656226;-67
2021/09/22 10:25:44;;;;;;;5.83;3.60;;;12.30;1.00;;;;;;4408706;28;656456;-67
2021/09/22 10:28:36;;;;;;;8.00;3.83;;;12.30;1.00;;;;;;4427706;28;655622;-67
2021/09/22 10:31:37;;;;;;;6.87;2.80;;;12.30;1.00;;;;;;4376197;28;656482;-67
2021/09/22 10:34:30;;;;;;;8.37;2.90;;;12.20;1.00;;;;;;4389123;28;655578;-67
2021/09/22 10:37:31;;;;;;;6.07;3.07;;;12.20;99.90;;;;;;4432029;28;655654;-68
2021/09/22 10:40:20;;;;;;;4.83;3.23;;;12.20;99.90;;;;;;4382612;28;656945;-68
2021/09/22 10:43:23;;;;;;;5.32;2.90;;;12.00;99.90;;;;;;4411165;28;656791;-67
2021/09/22 10:46:12;;;;;;;4.47;3.00;;;12.00;99.90;;;;;;4389090;28;656917;-66
2021/09/22 10:49:02;;;;;;;8.00;3.60;;;12.00;99.90;;;;;;4429299;28;656510;-67
2021/09/22 10:51:50;;;;;;;10.80;5.83;;;12.00;99.90;;;;;;4400791;28;656738;-67
2021/09/22 10:54:38;;;;;;;5.93;3.37;;;12.10;99.90;;;;;;4419259;28;657499;-67
2021/09/22 10:57:29;;;;;;;8.57;4.83;;;12.00;1.00;;;;;;4428890;28;656354;-66
2021/09/22 11:00:17;;;;;;;8.23;5.30;;;12.00;1.00;;;;;;4395209;28;655315;-67
2021/09/22 11:03:05;;;;;;;6.30;4.17;;;12.00;1.00;;;;;;4396872;28;656214;-67
2021/09/22 11:05:53;;;;;;;6.73;4.20;;;11.90;1.00;;;;;;4409556;28;656796;-68
2021/09/22 11:08:40;;;;;;;5.70;4.07;;;11.80;1.00;;;;;;4431765;28;655824;-67
2021/09/22 11:11:39;;;;;;;7.13;3.83;;;11.80;1.00;;;;;;4411903;28;656235;-68
2021/09/22 11:14:31;;;;;;;6.30;4.00;;;11.90;1.00;;;;;;4411601;28;655415;-67
2021/09/22 11:17:21;;;;;;;6.80;4.10;;;12.20;1.00;;;;;;4408091;28;655763;-67
2021/09/22 11:20:10;;;;;;;5.50;3.50;;;12.40;1.00;;;;;;4402480;28;655950;-67
2021/09/22 11:22:57;;;;;;;5.33;3.40;;;12.50;1.00;;;;;;4423802;28;655108;-67
2021/09/22 11:25:45;;;;;;;4.90;3.40;;;12.40;99.90;;;;;;4403682;28;656710;-67
2021/09/22 11:28:33;;;;;;;5.90;3.30;;;12.30;1.00;;;;;;4427268;28;656413;-68
2021/09/22 11:31:22;;;;;;;5.77;3.53;;;12.30;99.90;;;;;;4430699;28;656509;-67
2021/09/22 11:34:10;;;;;;;8.63;3.20;;;12.20;99.90;;;;;;4401837;28;657047;-67
2021/09/22 11:37:08;;;;;;;5.53;3.30;;;12.10;99.90;;;;;;4424042;28;656433;-67
2021/09/22 11:39:56;;;;;;;4.67;3.60;;;12.00;99.90;;;;;;4407584;28;656902;-67
2021/09/22 11:42:55;;;;;;;5.87;3.33;;;12.00;1.00;;;;;;4403979;28;656276;-68
2021/09/22 11:45:48;;;;;;;3.90;3.13;;;12.00;1.00;;;;;;4373418;28;658016;-67
2021/09/22 11:48:37;;;;;;;4.37;3.20;;;11.80;1.00;;;;;;4406867;28;656598;-67
2021/09/22 11:51:25;;;;;;;9.40;3.67;;;11.80;1.00;;;;;;4400036;28;655790;-67
2021/09/22 11:54:19;;;;;;;5.57;3.67;;;11.80;1.00;;;;;;4408422;28;655791;-68
2021/09/22 11:57:10;;;;;;;4.20;3.50;;;11.70;1.00;;;;;;4402225;28;655763;-67
2021/09/22 11:59:58;;;;;;;5.80;3.30;;;11.80;1.00;;;;;;4405531;28;656013;-67
2021/09/22 12:02:45;;;;;;;7.93;3.33;;;11.80;1.00;;;;;;4435186;28;656667;-67
2021/09/22 12:05:35;;;;;;;4.53;3.37;;;11.90;1.00;;;;;;4410367;28;655256;-67
2021/09/22 12:08:23;;;;;;;5.97;4.07;;;12.00;1.00;;;;;;4420068;28;655899;-67
2021/09/22 12:11:13;;;;;;;7.40;3.83;;;12.20;1.00;;;;;;4420725;28;656409;-67
2021/09/22 12:14:01;;;;;;;6.60;4.10;;;12.20;1.00;;;;;;4411549;28;656148;-67
2021/09/22 12:16:48;;;;;;;9.23;4.10;;;12.30;1.00;;;;;;4413377;28;655317;-67
2021/09/22 12:19:39;;;;;;;6.73;3.20;;;12.50;99.90;;;;;;4423777;28;656275;-67
2021/09/22 12:22:29;;;;;;;6.43;3.10;;;12.60;99.90;;;;;;4403359;28;657015;-67
2021/09/22 12:25:18;;;;;;;4.27;3.07;;;12.70;99.90;;;;;;4406985;28;657018;-67
2021/09/22 12:28:07;;;;;;;7.63;3.60;;;12.70;99.70;;;;;;4397343;28;657398;-67
2021/09/22 12:30:55;;;;;;;6.93;3.40;;;12.70;1.00;;;;;;4402449;28;657743;-67
2021/09/22 12:33:43;;;;;;;5.10;3.50;;;12.60;1.00;;;;;;4421578;28;656036;-68
2021/09/22 12:36:31;;;;;;;10.00;4.20;;;12.60;1.00;;;;;;4429177;28;656373;-67
2021/09/22 12:39:22;;;;;;;9.50;4.30;;;12.40;1.00;;;;;;4406769;28;656578;-67
2021/09/22 12:42:10;;;;;;;7.38;4.35;;;12.30;50.30;;;;;;4415651;28;655552;-67
2021/09/22 12:45:00;;;;;;;8.03;4.70;;;12.20;99.90;;;;;;4406843;28;656952;-67
2021/09/22 12:47:51;;;;;;;6.60;4.43;;;12.10;99.90;;;;;;4414357;28;656930;-68
2021/09/22 12:50:39;;;;;;;10.20;4.82;;;11.90;99.90;;;;;;4415126;28;656925;-67
2021/09/22 12:53:30;;;;;;;8.97;4.77;;;11.80;99.90;;;;;;4432939;28;657799;-67
2021/09/22 12:56:20;;;;;;;7.87;4.90;;;11.80;99.90;;;;;;4392632;28;657200;-67
2021/09/22 12:59:17;;;;;;;7.60;4.83;;;11.80;1.00;;;;;;4413802;28;657265;-67
2021/09/22 13:02:05;;;;;;;8.53;4.43;;;11.70;99.90;;;;;;4389048;28;656753;-67
2021/09/22 13:04:53;;;;;;;8.57;5.20;;;11.60;1.00;;;;;;4427677;28;657055;-67
2021/09/22 13:07:41;;;;;;;7.33;4.70;;;11.70;1.00;;;;;;4434194;28;655920;-67
2021/09/22 13:10:29;;;;;;;9.50;5.10;;;11.80;1.00;;;;;;4414294;28;655702;-67
2021/09/22 13:13:18;;;;;;;6.53;4.43;;;11.80;1.00;;;;;;4428068;28;655138;-67
2021/09/22 13:16:14;;;;;;;8.40;4.90;;;12.00;1.00;;;;;;4410905;28;656548;-67
2021/09/22 13:19:02;;;;;;;6.60;4.47;;;12.00;1.00;;;;;;4403556;28;656006;-67
2021/09/22 13:21:50;;;;;;;8.93;5.07;;;12.20;1.00;;;;;;4405139;28;655714;-67
2021/09/22 13:24:38;;;;;;;8.70;4.90;;;12.30;1.00;;;;;;4410699;28;655476;-68
2021/09/22 13:27:25;;;;;;;7.53;4.63;;;12.40;99.90;;;;;;4432706;28;656765;-66
2021/09/22 13:30:15;;;;;;;7.57;4.77;;;12.60;99.90;;;;;;4412342;28;656725;-67
2021/09/22 13:33:03;;;;;;;7.43;4.50;;;12.70;99.90;;;;;;4414692;28;657124;-68
2021/09/22 13:35:51;;;;;;;6.90;4.60;;;12.90;99.90;;;;;;4433179;28;657336;-67
2021/09/22 13:38:38;;;;;;;7.33;4.73;;;13.20;99.90;;;;;;4413174;28;656617;-67
2021/09/22 13:41:27;;;;;;;8.70;4.60;;;13.10;41.70;;;;;;4426557;28;657876;-67
2021/09/22 13:44:15;;;;;;;10.70;4.80;;;13.20;64.50;;;;;;4409617;28;656990;-67
2021/09/22 13:47:04;;;;;;;5.80;4.77;;;12.90;1.00;;;;;;4411669;28;658083;-67
2021/09/22 13:49:52;;;;;;;6.73;4.63;;;13.00;1.00;;;;;;4433695;28;656524;-68
2021/09/22 13:52:39;;;;;;;8.90;4.97;;;13.70;11.60;;;;;;4408312;28;656344;-67
2021/09/22 13:55:27;;;;;;;8.00;4.17;;;14.40;1.00;;;;;;4428416;28;657156;-67
2021/09/22 13:58:14;;;;;;;7.77;4.47;;;14.80;99.90;;;;;;4406946;28;656553;-67
2021/09/22 14:01:02;;;;;;;6.83;4.03;;;15.50;99.90;;;;;;4429815;28;656652;-67
2021/09/22 14:03:51;;;;;;;9.10;4.03;;;15.80;99.90;;;;;;4410875;28;657644;-68
2021/09/22 14:06:39;;;;;;;6.82;4.15;;;15.70;1.00;;;;;;4409792;28;656641;-67
2021/09/22 14:09:27;;;;;;;7.60;4.80;;;15.30;1.00;;;;;;4428210;28;655451;-67
2021/09/22 14:12:15;;;;;;;8.00;4.60;;;14.70;91.60;;;;;;4410772;28;655820;-67
2021/09/22 14:15:03;;;;;;;9.13;5.50;;;14.90;99.90;;;;;;4413878;28;656684;-67
2021/09/22 14:17:51;;;;;;;11.13;6.40;;;14.70;1.00;;;;;;4431551;28;657168;-67
2021/09/22 14:20:41;;;;;;;10.13;5.93;;;14.50;99.90;;;;;;4413603;28;656640;-68
2021/09/22 14:23:32;;;;;;;14.40;7.10;;;14.10;99.90;;;;;;4411313;28;657313;-67
2021/09/22 14:26:19;;;;;;;12.73;6.80;;;13.80;99.90;;;;;;4411750;28;658544;-67
2021/09/22 14:29:07;;;;;;;13.10;6.73;;;13.50;99.90;;;;;;4428820;28;657995;-67